sensor_id;sensor_type;location;lat;lon;timestamp;P1;durP1;ratioP1;P2;durP2;ratioP2
1262;SDS011;62267;50.112;8.704;2022-12-07T00:01:13;20.20;;;12.50;;
1262;SDS011;62267;50.112;8.704;2022-12-07T00:03:43;19.23;;;11.80;;
1262;SDS011;62267;50.112;8.704;2022-12-07T00:06:12;17.60;;;11.57;;
1262;SDS011;62267;50.112;8.704;2022-12-07T00:08:39;18.13;;;11.67;;
1262;SDS011;62267;50.112;8.704;2022-12-07T00:11:08;16.00;;;10.87;;
1262;SDS011;62267;50.112;8.704;2022-12-07T00:13:36;19.93;;;12.97;;
1262;SDS011;62267;50.112;8.704;2022-12-07T00:16:14;22.97;;;12.70;;
1262;SDS011;62267;50.112;8.704;2022-12-07T00:18:42;16.00;;;12.07;;
1262;SDS011;62267;50.112;8.704;2022-12-07T00:21:10;18.97;;;12.57;;
1262;SDS011;62267;50.112;8.704;2022-12-07T00:23:38;22.20;;;12.53;;
1262;SDS011;62267;50.112;8.704;2022-12-07T00:26:06;22.33;;;13.10;;
1262;SDS011;62267;50.112;8.704;2022-12-07T00:28:34;21.07;;;12.87;;
1262;SDS011;62267;50.112;8.704;2022-12-07T00:31:06;22.77;;;13.33;;
1262;SDS011;62267;50.112;8.704;2022-12-07T00:33:34;23.07;;;13.87;;
1262;SDS011;62267;50.112;8.704;2022-12-07T00:36:03;17.20;;;11.90;;
1262;SDS011;62267;50.112;8.704;2022-12-07T00:38:32;17.07;;;11.50;;
1262;SDS011;62267;50.112;8.704;2022-12-07T00:41:01;17.97;;;11.53;;
1262;SDS011;62267;50.112;8.704;2022-12-07T00:43:29;16.17;;;11.43;;
1262;SDS011;62267;50.112;8.704;2022-12-07T00:46:01;18.10;;;12.17;;
1262;SDS011;62267;50.112;8.704;2022-12-07T00:48:29;19.37;;;13.20;;
1262;SDS011;62267;50.112;8.704;2022-12-07T00:50:56;17.40;;;11.90;;
1262;SDS011;62267;50.112;8.704;2022-12-07T00:53:24;19.20;;;11.80;;
1262;SDS011;62267;50.112;8.704;2022-12-07T00:55:51;22.13;;;13.30;;
1262;SDS011;62267;50.112;8.704;2022-12-07T00:58:19;20.27;;;11.97;;
1262;SDS011;62267;50.112;8.704;2022-12-07T01:00:47;19.00;;;11.47;;
1262;SDS011;62267;50.112;8.704;2022-12-07T01:03:14;16.57;;;11.33;;
1262;SDS011;62267;50.112;8.704;2022-12-07T01:05:52;19.70;;;12.13;;
1262;SDS011;62267;50.112;8.704;2022-12-07T01:08:20;20.97;;;13.20;;
1262;SDS011;62267;50.112;8.704;2022-12-07T01:10:49;16.67;;;12.60;;
1262;SDS011;62267;50.112;8.704;2022-12-07T01:13:16;17.83;;;11.47;;
1262;SDS011;62267;50.112;8.704;2022-12-07T01:15:44;23.53;;;12.17;;
1262;SDS011;62267;50.112;8.704;2022-12-07T01:18:12;18.13;;;12.00;;
1262;SDS011;62267;50.112;8.704;2022-12-07T01:20:39;22.53;;;12.50;;
1262;SDS011;62267;50.112;8.704;2022-12-07T01:23:06;20.87;;;14.20;;
1262;SDS011;62267;50.112;8.704;2022-12-07T01:25:34;19.73;;;11.97;;
1262;SDS011;62267;50.112;8.704;2022-12-07T01:28:01;22.33;;;12.83;;
1262;SDS011;62267;50.112;8.704;2022-12-07T01:30:31;19.40;;;12.93;;
1262;SDS011;62267;50.112;8.704;2022-12-07T01:32:59;20.63;;;12.40;;
1262;SDS011;62267;50.112;8.704;2022-12-07T01:35:26;16.57;;;10.87;;
1262;SDS011;62267;50.112;8.704;2022-12-07T01:37:53;19.13;;;11.97;;
1262;SDS011;62267;50.112;8.704;2022-12-07T01:40:21;22.30;;;14.33;;
1262;SDS011;62267;50.112;8.704;2022-12-07T01:42:48;19.10;;;12.20;;
1262;SDS011;62267;50.112;8.704;2022-12-07T01:45:31;20.27;;;13.00;;
1262;SDS011;62267;50.112;8.704;2022-12-07T01:48:01;17.40;;;11.40;;
1262;SDS011;62267;50.112;8.704;2022-12-07T01:50:28;19.90;;;12.63;;
1262;SDS011;62267;50.112;8.704;2022-12-07T01:52:58;17.13;;;12.30;;
1262;SDS011;62267;50.112;8.704;2022-12-07T01:55:26;21.07;;;13.00;;
1262;SDS011;62267;50.112;8.704;2022-12-07T01:57:54;23.37;;;13.87;;
1262;SDS011;62267;50.112;8.704;2022-12-07T02:00:23;22.80;;;12.70;;
1262;SDS011;62267;50.112;8.704;2022-12-07T02:03:01;20.90;;;12.23;;
1262;SDS011;62267;50.112;8.704;2022-12-07T02:05:32;19.43;;;12.07;;
1262;SDS011;62267;50.112;8.704;2022-12-07T02:08:00;21.37;;;13.87;;
1262;SDS011;62267;50.112;8.704;2022-12-07T02:10:29;19.47;;;11.87;;
1262;SDS011;62267;50.112;8.704;2022-12-07T02:18:16;18.73;;;11.33;;
1262;SDS011;62267;50.112;8.704;2022-12-07T02:20:51;20.33;;;12.43;;
1262;SDS011;62267;50.112;8.704;2022-12-07T02:28:36;17.20;;;11.10;;
1262;SDS011;62267;50.112;8.704;2022-12-07T02:31:06;17.83;;;10.40;;
1262;SDS011;62267;50.112;8.704;2022-12-07T02:33:36;17.90;;;11.70;;
1262;SDS011;62267;50.112;8.704;2022-12-07T02:36:11;20.83;;;10.93;;
1262;SDS011;62267;50.112;8.704;2022-12-07T02:38:44;14.37;;;11.67;;
1262;SDS011;62267;50.112;8.704;2022-12-07T02:43:41;16.23;;;11.53;;
1262;SDS011;62267;50.112;8.704;2022-12-07T02:46:17;20.73;;;10.83;;
1262;SDS011;62267;50.112;8.704;2022-12-07T02:48:45;16.10;;;9.97;;
1262;SDS011;62267;50.112;8.704;2022-12-07T02:51:13;19.70;;;11.13;;
1262;SDS011;62267;50.112;8.704;2022-12-07T02:53:42;17.40;;;10.40;;
1262;SDS011;62267;50.112;8.704;2022-12-07T02:58:46;18.47;;;11.10;;
1262;SDS011;62267;50.112;8.704;2022-12-07T03:01:22;18.13;;;10.57;;
1262;SDS011;62267;50.112;8.704;2022-12-07T03:06:43;18.90;;;11.77;;
1262;SDS011;62267;50.112;8.704;2022-12-07T03:12:31;18.77;;;10.63;;
1262;SDS011;62267;50.112;8.704;2022-12-07T03:14:52;11.80;;;9.33;;
1262;SDS011;62267;50.112;8.704;2022-12-07T03:17:24;17.10;;;10.43;;
1262;SDS011;62267;50.112;8.704;2022-12-07T03:19:53;19.40;;;9.27;;
1262;SDS011;62267;50.112;8.704;2022-12-07T03:22:22;14.97;;;10.37;;
1262;SDS011;62267;50.112;8.704;2022-12-07T03:24:55;16.77;;;9.93;;
1262;SDS011;62267;50.112;8.704;2022-12-07T03:29:56;16.77;;;10.27;;
1262;SDS011;62267;50.112;8.704;2022-12-07T03:35:00;15.27;;;9.50;;
1262;SDS011;62267;50.112;8.704;2022-12-07T03:37:38;15.53;;;9.53;;
1262;SDS011;62267;50.112;8.704;2022-12-07T03:42:33;15.77;;;9.40;;
1262;SDS011;62267;50.112;8.704;2022-12-07T03:45:01;12.53;;;8.80;;
1262;SDS011;62267;50.112;8.704;2022-12-07T03:47:31;13.40;;;9.43;;
1262;SDS011;62267;50.112;8.704;2022-12-07T03:50:07;17.77;;;9.50;;
1262;SDS011;62267;50.112;8.704;2022-12-07T03:52:40;13.90;;;9.30;;
1262;SDS011;62267;50.112;8.704;2022-12-07T03:55:42;11.13;;;8.50;;
1262;SDS011;62267;50.112;8.704;2022-12-07T03:58:03;15.33;;;9.03;;
1262;SDS011;62267;50.112;8.704;2022-12-07T04:00:31;17.20;;;7.90;;
1262;SDS011;62267;50.112;8.704;2022-12-07T04:02:58;13.20;;;7.80;;
1262;SDS011;62267;50.112;8.704;2022-12-07T04:05:25;14.60;;;8.83;;
1262;SDS011;62267;50.112;8.704;2022-12-07T04:07:53;14.80;;;9.47;;
1262;SDS011;62267;50.112;8.704;2022-12-07T04:10:20;15.67;;;9.47;;
1262;SDS011;62267;50.112;8.704;2022-12-07T04:12:47;15.30;;;9.10;;
1262;SDS011;62267;50.112;8.704;2022-12-07T04:15:14;14.60;;;9.17;;
1262;SDS011;62267;50.112;8.704;2022-12-07T04:17:41;12.73;;;8.27;;
1262;SDS011;62267;50.112;8.704;2022-12-07T04:20:09;16.70;;;8.87;;
1262;SDS011;62267;50.112;8.704;2022-12-07T04:22:36;13.90;;;9.50;;
1262;SDS011;62267;50.112;8.704;2022-12-07T04:25:04;12.80;;;8.90;;
1262;SDS011;62267;50.112;8.704;2022-12-07T04:27:31;17.47;;;9.70;;
1262;SDS011;62267;50.112;8.704;2022-12-07T04:29:58;12.17;;;7.60;;
1262;SDS011;62267;50.112;8.704;2022-12-07T04:32:26;13.47;;;8.63;;
1262;SDS011;62267;50.112;8.704;2022-12-07T04:34:54;14.37;;;9.00;;
1262;SDS011;62267;50.112;8.704;2022-12-07T04:37:21;11.33;;;7.90;;
1262;SDS011;62267;50.112;8.704;2022-12-07T04:39:49;15.40;;;9.23;;
1262;SDS011;62267;50.112;8.704;2022-12-07T04:42:16;12.70;;;7.53;;
1262;SDS011;62267;50.112;8.704;2022-12-07T04:44:43;12.27;;;7.93;;
1262;SDS011;62267;50.112;8.704;2022-12-07T04:47:10;15.47;;;8.63;;
1262;SDS011;62267;50.112;8.704;2022-12-07T04:49:38;13.60;;;8.13;;
1262;SDS011;62267;50.112;8.704;2022-12-07T04:52:05;12.37;;;8.50;;
1262;SDS011;62267;50.112;8.704;2022-12-07T04:54:32;12.40;;;8.90;;
1262;SDS011;62267;50.112;8.704;2022-12-07T04:56:59;10.67;;;7.90;;
1262;SDS011;62267;50.112;8.704;2022-12-07T04:59:26;12.10;;;8.47;;
1262;SDS011;62267;50.112;8.704;2022-12-07T05:01:54;13.47;;;8.70;;
1262;SDS011;62267;50.112;8.704;2022-12-07T05:04:21;13.93;;;8.80;;
1262;SDS011;62267;50.112;8.704;2022-12-07T05:06:48;13.10;;;7.90;;
1262;SDS011;62267;50.112;8.704;2022-12-07T05:09:15;14.40;;;9.27;;
1262;SDS011;62267;50.112;8.704;2022-12-07T05:11:42;13.93;;;8.93;;
1262;SDS011;62267;50.112;8.704;2022-12-07T05:14:11;10.40;;;8.13;;
1262;SDS011;62267;50.112;8.704;2022-12-07T05:16:39;14.07;;;8.30;;
1262;SDS011;62267;50.112;8.704;2022-12-07T05:19:07;16.33;;;7.90;;
1262;SDS011;62267;50.112;8.704;2022-12-07T05:21:35;13.20;;;7.80;;
1262;SDS011;62267;50.112;8.704;2022-12-07T05:24:02;11.67;;;8.70;;
1262;SDS011;62267;50.112;8.704;2022-12-07T05:26:30;15.00;;;10.13;;
1262;SDS011;62267;50.112;8.704;2022-12-07T05:28:57;13.43;;;9.00;;
1262;SDS011;62267;50.112;8.704;2022-12-07T05:31:25;15.20;;;8.87;;
1262;SDS011;62267;50.112;8.704;2022-12-07T05:33:53;14.90;;;9.10;;
1262;SDS011;62267;50.112;8.704;2022-12-07T05:36:21;12.73;;;8.90;;
1262;SDS011;62267;50.112;8.704;2022-12-07T05:38:48;14.47;;;8.50;;
1262;SDS011;62267;50.112;8.704;2022-12-07T05:41:16;14.73;;;9.37;;
1262;SDS011;62267;50.112;8.704;2022-12-07T05:44:03;12.30;;;7.87;;
1262;SDS011;62267;50.112;8.704;2022-12-07T05:46:30;19.43;;;9.20;;
1262;SDS011;62267;50.112;8.704;2022-12-07T05:48:57;14.20;;;8.47;;
1262;SDS011;62267;50.112;8.704;2022-12-07T05:51:26;15.63;;;9.40;;
1262;SDS011;62267;50.112;8.704;2022-12-07T05:53:53;13.80;;;8.80;;
1262;SDS011;62267;50.112;8.704;2022-12-07T05:56:20;15.17;;;9.93;;
1262;SDS011;62267;50.112;8.704;2022-12-07T05:58:47;14.50;;;9.37;;
1262;SDS011;62267;50.112;8.704;2022-12-07T06:01:33;14.33;;;8.90;;
1262;SDS011;62267;50.112;8.704;2022-12-07T06:04:00;9.93;;;8.63;;
1262;SDS011;62267;50.112;8.704;2022-12-07T06:06:29;14.43;;;9.50;;
1262;SDS011;62267;50.112;8.704;2022-12-07T06:08:56;14.27;;;10.23;;
1262;SDS011;62267;50.112;8.704;2022-12-07T06:11:23;12.47;;;8.53;;
1262;SDS011;62267;50.112;8.704;2022-12-07T06:14:09;15.30;;;8.50;;
1262;SDS011;62267;50.112;8.704;2022-12-07T06:16:36;15.53;;;9.37;;
1262;SDS011;62267;50.112;8.704;2022-12-07T06:19:03;14.20;;;9.37;;
1262;SDS011;62267;50.112;8.704;2022-12-07T06:21:30;15.57;;;9.33;;
1262;SDS011;62267;50.112;8.704;2022-12-07T06:23:58;13.83;;;9.30;;
1262;SDS011;62267;50.112;8.704;2022-12-07T06:26:25;13.63;;;9.13;;
1262;SDS011;62267;50.112;8.704;2022-12-07T06:28:52;13.77;;;8.53;;
1262;SDS011;62267;50.112;8.704;2022-12-07T06:31:20;15.33;;;9.37;;
1262;SDS011;62267;50.112;8.704;2022-12-07T06:33:48;13.90;;;8.30;;
1262;SDS011;62267;50.112;8.704;2022-12-07T06:36:15;17.13;;;9.20;;
1262;SDS011;62267;50.112;8.704;2022-12-07T06:38:47;16.10;;;9.30;;
1262;SDS011;62267;50.112;8.704;2022-12-07T06:41:15;11.47;;;8.00;;
1262;SDS011;62267;50.112;8.704;2022-12-07T06:43:42;15.03;;;9.00;;
1262;SDS011;62267;50.112;8.704;2022-12-07T06:46:09;14.83;;;9.50;;
1262;SDS011;62267;50.112;8.704;2022-12-07T06:48:36;14.67;;;9.00;;
1262;SDS011;62267;50.112;8.704;2022-12-07T06:51:03;14.30;;;9.33;;
1262;SDS011;62267;50.112;8.704;2022-12-07T06:53:30;17.30;;;10.10;;
1262;SDS011;62267;50.112;8.704;2022-12-07T06:55:59;13.30;;;10.17;;
1262;SDS011;62267;50.112;8.704;2022-12-07T06:58:27;13.83;;;9.53;;
1262;SDS011;62267;50.112;8.704;2022-12-07T07:00:54;17.13;;;9.60;;
1262;SDS011;62267;50.112;8.704;2022-12-07T07:03:22;15.77;;;10.03;;
1262;SDS011;62267;50.112;8.704;2022-12-07T07:05:49;19.23;;;10.60;;
1262;SDS011;62267;50.112;8.704;2022-12-07T07:08:16;14.40;;;9.27;;
1262;SDS011;62267;50.112;8.704;2022-12-07T07:10:48;14.63;;;10.23;;
1262;SDS011;62267;50.112;8.704;2022-12-07T07:13:15;13.53;;;8.90;;
1262;SDS011;62267;50.112;8.704;2022-12-07T07:15:42;16.10;;;9.57;;
1262;SDS011;62267;50.112;8.704;2022-12-07T07:18:10;16.60;;;9.80;;
1262;SDS011;62267;50.112;8.704;2022-12-07T07:20:37;16.23;;;10.47;;
1262;SDS011;62267;50.112;8.704;2022-12-07T07:23:05;14.70;;;10.03;;
1262;SDS011;62267;50.112;8.704;2022-12-07T07:25:32;16.93;;;9.97;;
1262;SDS011;62267;50.112;8.704;2022-12-07T07:28:00;18.10;;;11.77;;
1262;SDS011;62267;50.112;8.704;2022-12-07T07:30:27;17.37;;;11.37;;
1262;SDS011;62267;50.112;8.704;2022-12-07T07:32:59;15.13;;;9.93;;
1262;SDS011;62267;50.112;8.704;2022-12-07T07:35:27;13.67;;;9.43;;
1262;SDS011;62267;50.112;8.704;2022-12-07T07:37:54;14.07;;;10.00;;
1262;SDS011;62267;50.112;8.704;2022-12-07T07:40:22;19.10;;;9.67;;
1262;SDS011;62267;50.112;8.704;2022-12-07T07:42:50;15.73;;;10.90;;
1262;SDS011;62267;50.112;8.704;2022-12-07T07:45:18;19.53;;;11.00;;
1262;SDS011;62267;50.112;8.704;2022-12-07T07:47:46;16.00;;;10.03;;
1262;SDS011;62267;50.112;8.704;2022-12-07T07:50:15;20.87;;;10.40;;
1262;SDS011;62267;50.112;8.704;2022-12-07T07:52:42;19.10;;;11.00;;
1262;SDS011;62267;50.112;8.704;2022-12-07T07:55:10;16.20;;;10.30;;
1262;SDS011;62267;50.112;8.704;2022-12-07T07:57:38;20.20;;;11.00;;
1262;SDS011;62267;50.112;8.704;2022-12-07T08:00:06;15.50;;;10.50;;
1262;SDS011;62267;50.112;8.704;2022-12-07T08:02:41;16.80;;;11.60;;
1262;SDS011;62267;50.112;8.704;2022-12-07T08:05:12;19.97;;;11.03;;
1262;SDS011;62267;50.112;8.704;2022-12-07T08:07:40;18.43;;;11.43;;
1262;SDS011;62267;50.112;8.704;2022-12-07T08:10:09;21.83;;;11.37;;
1262;SDS011;62267;50.112;8.704;2022-12-07T08:12:37;19.33;;;11.03;;
1262;SDS011;62267;50.112;8.704;2022-12-07T08:15:26;20.37;;;11.70;;
1262;SDS011;62267;50.112;8.704;2022-12-07T08:17:53;17.30;;;10.83;;
1262;SDS011;62267;50.112;8.704;2022-12-07T08:20:21;15.73;;;10.50;;
1262;SDS011;62267;50.112;8.704;2022-12-07T08:22:48;21.03;;;10.10;;
1262;SDS011;62267;50.112;8.704;2022-12-07T08:25:15;16.30;;;11.07;;
1262;SDS011;62267;50.112;8.704;2022-12-07T08:27:42;14.50;;;9.73;;
1262;SDS011;62267;50.112;8.704;2022-12-07T08:30:10;16.00;;;9.77;;
1262;SDS011;62267;50.112;8.704;2022-12-07T08:32:37;16.10;;;10.60;;
1262;SDS011;62267;50.112;8.704;2022-12-07T08:35:05;16.67;;;10.10;;
1262;SDS011;62267;50.112;8.704;2022-12-07T08:37:32;19.30;;;12.17;;
1262;SDS011;62267;50.112;8.704;2022-12-07T08:40:00;17.30;;;10.87;;
1262;SDS011;62267;50.112;8.704;2022-12-07T08:42:27;17.60;;;11.20;;
1262;SDS011;62267;50.112;8.704;2022-12-07T08:44:56;17.17;;;10.67;;
1262;SDS011;62267;50.112;8.704;2022-12-07T08:47:24;16.80;;;11.40;;
1262;SDS011;62267;50.112;8.704;2022-12-07T08:49:51;12.80;;;9.23;;
1262;SDS011;62267;50.112;8.704;2022-12-07T08:52:20;14.73;;;8.90;;
1262;SDS011;62267;50.112;8.704;2022-12-07T08:54:48;12.27;;;9.50;;
1262;SDS011;62267;50.112;8.704;2022-12-07T08:57:15;16.37;;;10.50;;
1262;SDS011;62267;50.112;8.704;2022-12-07T08:59:43;14.50;;;9.77;;
1262;SDS011;62267;50.112;8.704;2022-12-07T09:02:10;17.00;;;10.40;;
1262;SDS011;62267;50.112;8.704;2022-12-07T09:04:37;17.20;;;11.57;;
1262;SDS011;62267;50.112;8.704;2022-12-07T09:07:04;13.30;;;9.33;;
1262;SDS011;62267;50.112;8.704;2022-12-07T09:09:32;14.70;;;9.87;;
1262;SDS011;62267;50.112;8.704;2022-12-07T09:11:59;16.90;;;10.30;;
1262;SDS011;62267;50.112;8.704;2022-12-07T09:14:26;12.20;;;8.67;;
1262;SDS011;62267;50.112;8.704;2022-12-07T09:16:53;18.17;;;10.20;;
1262;SDS011;62267;50.112;8.704;2022-12-07T09:19:21;13.63;;;9.10;;
1262;SDS011;62267;50.112;8.704;2022-12-07T09:21:48;13.30;;;9.00;;
1262;SDS011;62267;50.112;8.704;2022-12-07T09:24:16;14.40;;;9.50;;
1262;SDS011;62267;50.112;8.704;2022-12-07T09:26:43;11.47;;;8.57;;
1262;SDS011;62267;50.112;8.704;2022-12-07T09:29:10;16.27;;;9.40;;
1262;SDS011;62267;50.112;8.704;2022-12-07T09:31:37;11.90;;;8.13;;
1262;SDS011;62267;50.112;8.704;2022-12-07T09:34:05;13.37;;;8.87;;
1262;SDS011;62267;50.112;8.704;2022-12-07T09:36:33;15.03;;;9.13;;
1262;SDS011;62267;50.112;8.704;2022-12-07T09:39:00;15.23;;;8.90;;
1262;SDS011;62267;50.112;8.704;2022-12-07T09:41:29;13.90;;;9.00;;
1262;SDS011;62267;50.112;8.704;2022-12-07T09:44:02;14.77;;;8.43;;
1262;SDS011;62267;50.112;8.704;2022-12-07T09:46:35;10.43;;;8.47;;
1262;SDS011;62267;50.112;8.704;2022-12-07T09:49:03;12.63;;;8.17;;
1262;SDS011;62267;50.112;8.704;2022-12-07T09:51:31;14.10;;;8.30;;
1262;SDS011;62267;50.112;8.704;2022-12-07T09:54:00;11.57;;;8.60;;
1262;SDS011;62267;50.112;8.704;2022-12-07T09:56:28;11.23;;;8.00;;
1262;SDS011;62267;50.112;8.704;2022-12-07T09:59:00;13.33;;;9.03;;
1262;SDS011;62267;50.112;8.704;2022-12-07T10:01:28;15.20;;;8.00;;
1262;SDS011;62267;50.112;8.704;2022-12-07T10:04:39;11.33;;;8.00;;
1262;SDS011;62267;50.112;8.704;2022-12-07T10:06:47;12.77;;;8.20;;
1262;SDS011;62267;50.112;8.704;2022-12-07T10:09:17;12.40;;;8.53;;
1262;SDS011;62267;50.112;8.704;2022-12-07T10:14:31;12.20;;;8.43;;
1262;SDS011;62267;50.112;8.704;2022-12-07T10:19:57;10.93;;;8.47;;
1262;SDS011;62267;50.112;8.704;2022-12-07T10:25:44;9.17;;;7.70;;
1262;SDS011;62267;50.112;8.704;2022-12-07T10:28:12;16.13;;;9.60;;
1262;SDS011;62267;50.112;8.704;2022-12-07T10:30:47;9.93;;;7.33;;
1262;SDS011;62267;50.112;8.704;2022-12-07T10:33:26;10.77;;;8.63;;
1262;SDS011;62267;50.112;8.704;2022-12-07T10:35:55;11.00;;;7.03;;
1262;SDS011;62267;50.112;8.704;2022-12-07T10:38:22;7.73;;;6.60;;
1262;SDS011;62267;50.112;8.704;2022-12-07T10:40:52;11.93;;;7.37;;
1262;SDS011;62267;50.112;8.704;2022-12-07T10:43:29;12.20;;;7.43;;
1262;SDS011;62267;50.112;8.704;2022-12-07T10:46:03;5.60;;;5.10;;
1262;SDS011;62267;50.112;8.704;2022-12-07T11:01:32;7.70;;;4.13;;
1262;SDS011;62267;50.112;8.704;2022-12-07T11:14:44;10.97;;;5.70;;
1262;SDS011;62267;50.112;8.704;2022-12-07T11:17:20;10.03;;;4.80;;
1262;SDS011;62267;50.112;8.704;2022-12-07T11:20:00;12.00;;;5.30;;
1262;SDS011;62267;50.112;8.704;2022-12-07T11:22:36;8.47;;;4.50;;
1262;SDS011;62267;50.112;8.704;2022-12-07T11:27:40;6.07;;;4.83;;
1262;SDS011;62267;50.112;8.704;2022-12-07T11:30:22;4.60;;;4.10;;
1262;SDS011;62267;50.112;8.704;2022-12-07T11:32:52;4.60;;;4.20;;
1262;SDS011;62267;50.112;8.704;2022-12-07T11:37:57;5.80;;;4.53;;
1262;SDS011;62267;50.112;8.704;2022-12-07T11:40:28;6.50;;;5.30;;
1262;SDS011;62267;50.112;8.704;2022-12-07T11:45:44;7.33;;;5.03;;
1262;SDS011;62267;50.112;8.704;2022-12-07T11:48:46;10.13;;;6.00;;
1262;SDS011;62267;50.112;8.704;2022-12-07T11:51:07;8.60;;;5.30;;
1262;SDS011;62267;50.112;8.704;2022-12-07T11:53:47;5.37;;;4.77;;
1262;SDS011;62267;50.112;8.704;2022-12-07T11:56:17;11.97;;;6.50;;
1262;SDS011;62267;50.112;8.704;2022-12-07T12:04:23;9.00;;;5.67;;
1262;SDS011;62267;50.112;8.704;2022-12-07T12:06:52;7.43;;;5.20;;
1262;SDS011;62267;50.112;8.704;2022-12-07T12:09:24;7.03;;;4.90;;
1262;SDS011;62267;50.112;8.704;2022-12-07T12:12:22;5.80;;;4.57;;
1262;SDS011;62267;50.112;8.704;2022-12-07T12:18:28;6.57;;;5.57;;
1262;SDS011;62267;50.112;8.704;2022-12-07T12:20:46;4.10;;;3.70;;
1262;SDS011;62267;50.112;8.704;2022-12-07T12:23:23;7.97;;;4.07;;
1262;SDS011;62267;50.112;8.704;2022-12-07T12:25:59;5.73;;;3.90;;
1262;SDS011;62267;50.112;8.704;2022-12-07T12:33:51;8.93;;;4.97;;
1262;SDS011;62267;50.112;8.704;2022-12-07T12:36:20;8.77;;;4.20;;
1262;SDS011;62267;50.112;8.704;2022-12-07T12:38:52;7.67;;;4.53;;
1262;SDS011;62267;50.112;8.704;2022-12-07T12:46:48;4.50;;;3.63;;
1262;SDS011;62267;50.112;8.704;2022-12-07T12:51:53;4.47;;;3.40;;
1262;SDS011;62267;50.112;8.704;2022-12-07T12:54:25;3.47;;;3.10;;
1262;SDS011;62267;50.112;8.704;2022-12-07T12:56:59;9.73;;;3.90;;
1262;SDS011;62267;50.112;8.704;2022-12-07T12:59:32;6.03;;;3.37;;
1262;SDS011;62267;50.112;8.704;2022-12-07T13:04:50;5.93;;;5.47;;
1262;SDS011;62267;50.112;8.704;2022-12-07T13:10:08;11.30;;;3.40;;
1262;SDS011;62267;50.112;8.704;2022-12-07T13:13:46;8.20;;;4.30;;
1262;SDS011;62267;50.112;8.704;2022-12-07T13:15:45;5.57;;;3.63;;
1262;SDS011;62267;50.112;8.704;2022-12-07T13:23:19;5.50;;;4.10;;
1262;SDS011;62267;50.112;8.704;2022-12-07T13:28:37;6.20;;;3.73;;
1262;SDS011;62267;50.112;8.704;2022-12-07T13:31:25;3.30;;;3.10;;
1262;SDS011;62267;50.112;8.704;2022-12-07T13:33:57;7.50;;;3.20;;
1262;SDS011;62267;50.112;8.704;2022-12-07T13:36:25;5.30;;;3.30;;
1262;SDS011;62267;50.112;8.704;2022-12-07T13:38:56;4.40;;;3.43;;
1262;SDS011;62267;50.112;8.704;2022-12-07T13:41:25;3.97;;;3.57;;
1262;SDS011;62267;50.112;8.704;2022-12-07T13:44:05;7.73;;;3.40;;
1262;SDS011;62267;50.112;8.704;2022-12-07T13:49:25;5.20;;;3.63;;
1262;SDS011;62267;50.112;8.704;2022-12-07T13:51:52;3.60;;;3.27;;
1262;SDS011;62267;50.112;8.704;2022-12-07T13:54:20;6.33;;;3.67;;
1262;SDS011;62267;50.112;8.704;2022-12-07T13:56:49;5.70;;;3.37;;
1262;SDS011;62267;50.112;8.704;2022-12-07T13:59:18;5.63;;;3.20;;
1262;SDS011;62267;50.112;8.704;2022-12-07T14:01:47;5.03;;;3.47;;
1262;SDS011;62267;50.112;8.704;2022-12-07T14:06:48;4.40;;;3.33;;
1262;SDS011;62267;50.112;8.704;2022-12-07T14:09:18;4.00;;;3.40;;
1262;SDS011;62267;50.112;8.704;2022-12-07T14:11:46;2.90;;;2.70;;
1262;SDS011;62267;50.112;8.704;2022-12-07T14:14:19;6.20;;;3.87;;
1262;SDS011;62267;50.112;8.704;2022-12-07T14:22:25;7.57;;;4.07;;
1262;SDS011;62267;50.112;8.704;2022-12-07T14:25:00;4.97;;;3.87;;
1262;SDS011;62267;50.112;8.704;2022-12-07T14:27:30;4.10;;;3.70;;
1262;SDS011;62267;50.112;8.704;2022-12-07T14:30:00;5.13;;;4.63;;
1262;SDS011;62267;50.112;8.704;2022-12-07T14:32:28;3.87;;;3.53;;
1262;SDS011;62267;50.112;8.704;2022-12-07T14:34:58;5.13;;;3.50;;
1262;SDS011;62267;50.112;8.704;2022-12-07T14:37:26;3.93;;;3.17;;
1262;SDS011;62267;50.112;8.704;2022-12-07T14:39:53;5.10;;;4.33;;
1262;SDS011;62267;50.112;8.704;2022-12-07T14:42:21;11.30;;;4.23;;
1262;SDS011;62267;50.112;8.704;2022-12-07T14:44:49;4.03;;;3.60;;
1262;SDS011;62267;50.112;8.704;2022-12-07T14:47:16;4.33;;;3.57;;
1262;SDS011;62267;50.112;8.704;2022-12-07T14:50:03;4.77;;;3.90;;
1262;SDS011;62267;50.112;8.704;2022-12-07T14:52:32;5.40;;;4.10;;
1262;SDS011;62267;50.112;8.704;2022-12-07T14:57:50;5.57;;;4.63;;
1262;SDS011;62267;50.112;8.704;2022-12-07T15:00:17;4.80;;;3.40;;
1262;SDS011;62267;50.112;8.704;2022-12-07T15:02:45;4.23;;;3.60;;
1262;SDS011;62267;50.112;8.704;2022-12-07T15:05:13;3.50;;;3.20;;
1262;SDS011;62267;50.112;8.704;2022-12-07T15:07:42;6.13;;;3.33;;
1262;SDS011;62267;50.112;8.704;2022-12-07T15:12:49;4.60;;;3.70;;
1262;SDS011;62267;50.112;8.704;2022-12-07T15:15:16;3.70;;;3.40;;
1262;SDS011;62267;50.112;8.704;2022-12-07T15:17:44;3.57;;;3.23;;
1262;SDS011;62267;50.112;8.704;2022-12-07T15:20:12;5.07;;;3.90;;
1262;SDS011;62267;50.112;8.704;2022-12-07T15:22:40;6.80;;;3.40;;
1262;SDS011;62267;50.112;8.704;2022-12-07T15:25:08;8.00;;;3.73;;
1262;SDS011;62267;50.112;8.704;2022-12-07T15:27:35;6.20;;;4.10;;
1262;SDS011;62267;50.112;8.704;2022-12-07T15:30:03;8.97;;;3.90;;
1262;SDS011;62267;50.112;8.704;2022-12-07T15:32:30;4.33;;;3.60;;
1262;SDS011;62267;50.112;8.704;2022-12-07T15:34:57;7.30;;;3.87;;
1262;SDS011;62267;50.112;8.704;2022-12-07T15:37:25;4.27;;;3.87;;
1262;SDS011;62267;50.112;8.704;2022-12-07T15:39:52;3.93;;;3.63;;
1262;SDS011;62267;50.112;8.704;2022-12-07T15:42:19;7.43;;;3.60;;
1262;SDS011;62267;50.112;8.704;2022-12-07T15:44:47;4.07;;;2.93;;
1262;SDS011;62267;50.112;8.704;2022-12-07T15:47:37;3.87;;;3.50;;
1262;SDS011;62267;50.112;8.704;2022-12-07T15:50:24;3.77;;;3.13;;
1262;SDS011;62267;50.112;8.704;2022-12-07T15:52:52;4.47;;;3.80;;
1262;SDS011;62267;50.112;8.704;2022-12-07T15:55:19;5.80;;;3.83;;
1262;SDS011;62267;50.112;8.704;2022-12-07T15:57:46;6.80;;;4.73;;
1262;SDS011;62267;50.112;8.704;2022-12-07T16:00:14;5.80;;;3.77;;
1262;SDS011;62267;50.112;8.704;2022-12-07T16:02:41;4.40;;;3.97;;
1262;SDS011;62267;50.112;8.704;2022-12-07T16:05:08;4.90;;;4.40;;
1262;SDS011;62267;50.112;8.704;2022-12-07T16:07:36;6.33;;;3.90;;
1262;SDS011;62267;50.112;8.704;2022-12-07T16:10:03;6.97;;;4.10;;
1262;SDS011;62267;50.112;8.704;2022-12-07T16:12:31;6.73;;;4.00;;
1262;SDS011;62267;50.112;8.704;2022-12-07T16:14:58;7.30;;;4.80;;
1262;SDS011;62267;50.112;8.704;2022-12-07T16:17:25;9.83;;;5.50;;
1262;SDS011;62267;50.112;8.704;2022-12-07T16:19:52;9.37;;;4.83;;
1262;SDS011;62267;50.112;8.704;2022-12-07T16:22:20;6.57;;;4.20;;
1262;SDS011;62267;50.112;8.704;2022-12-07T16:24:47;5.43;;;3.80;;
1262;SDS011;62267;50.112;8.704;2022-12-07T16:27:17;5.93;;;4.60;;
1262;SDS011;62267;50.112;8.704;2022-12-07T16:29:45;6.90;;;4.87;;
1262;SDS011;62267;50.112;8.704;2022-12-07T16:32:13;6.93;;;5.63;;
1262;SDS011;62267;50.112;8.704;2022-12-07T16:34:40;10.67;;;5.77;;
1262;SDS011;62267;50.112;8.704;2022-12-07T16:37:08;8.43;;;5.67;;
1262;SDS011;62267;50.112;8.704;2022-12-07T16:39:36;12.07;;;4.53;;
1262;SDS011;62267;50.112;8.704;2022-12-07T16:42:04;7.50;;;5.33;;
1262;SDS011;62267;50.112;8.704;2022-12-07T16:44:32;6.83;;;5.67;;
1262;SDS011;62267;50.112;8.704;2022-12-07T16:47:00;6.20;;;4.03;;
1262;SDS011;62267;50.112;8.704;2022-12-07T16:49:27;6.67;;;4.47;;
1262;SDS011;62267;50.112;8.704;2022-12-07T16:51:55;11.80;;;4.20;;
1262;SDS011;62267;50.112;8.704;2022-12-07T16:54:42;10.57;;;4.63;;
1262;SDS011;62267;50.112;8.704;2022-12-07T16:57:09;6.50;;;3.70;;
1262;SDS011;62267;50.112;8.704;2022-12-07T16:59:42;7.27;;;4.30;;
1262;SDS011;62267;50.112;8.704;2022-12-07T17:02:11;6.97;;;3.80;;
1262;SDS011;62267;50.112;8.704;2022-12-07T17:04:40;4.40;;;4.00;;